createdAt,value
2017-12-27T00:02:25.436Z,99399.09
2017-12-27T00:04:57.402Z,99393.89
2017-12-27T00:07:29.244Z,99397.93
2017-12-27T00:10:01.095Z,99393.53
2017-12-27T00:12:32.946Z,99390.77
2017-12-27T00:15:04.726Z,99390.65
2017-12-27T00:17:36.554Z,99388.47
2017-12-27T00:20:08.306Z,99392.44
2017-12-27T00:22:40.094Z,99394.22
2017-12-27T00:25:11.943Z,99393.45
2017-12-27T00:27:43.721Z,99383.69
2017-12-27T00:30:15.779Z,99374.60
2017-12-27T00:32:41.523Z,99372.64
2017-12-27T00:35:07.256Z,99373.84
2017-12-27T00:37:32.994Z,99364.80
2017-12-27T00:39:58.738Z,99366.17
2017-12-27T00:42:24.463Z,99374.56
2017-12-27T00:44:50.220Z,99376.41
2017-12-27T00:47:15.980Z,99370.34
2017-12-27T00:49:41.735Z,99364.20
2017-12-27T00:52:07.490Z,99363.24
2017-12-27T00:54:33.242Z,99359.25
2017-12-27T00:56:58.994Z,99360.27
2017-12-27T00:59:24.738Z,99358.25
2017-12-27T01:01:50.486Z,99356.04
2017-12-27T01:04:16.227Z,99363.02
2017-12-27T01:06:41.974Z,99354.36
2017-12-27T01:09:07.715Z,99351.72
2017-12-27T01:11:33.454Z,99351.68
2017-12-27T01:13:59.315Z,99349.84
2017-12-27T01:16:25.066Z,99352.38
2017-12-27T01:18:50.807Z,99348.46
2017-12-27T01:21:16.558Z,99346.42
2017-12-27T01:23:42.302Z,99341.30
2017-12-27T01:26:08.046Z,99338.47
2017-12-27T01:28:33.778Z,99337.53
2017-12-27T01:30:59.537Z,99323.88
2017-12-27T01:33:25.278Z,99313.86
2017-12-27T01:35:51.012Z,99317.23
2017-12-27T01:38:16.763Z,99311.24
2017-12-27T01:40:42.503Z,99315.30
2017-12-27T01:43:08.250Z,99306.73
2017-12-27T01:45:34.000Z,99309.38
2017-12-27T01:47:59.747Z,99311.42
2017-12-27T01:50:25.509Z,99299.98
2017-12-27T01:52:51.265Z,99298.13
2017-12-27T01:55:17.014Z,99294.97
2017-12-27T01:57:42.745Z,99293.99
2017-12-27T02:00:08.486Z,99284.95
2017-12-27T02:02:34.244Z,99281.34
2017-12-27T02:04:59.992Z,99274.45
2017-12-27T02:07:25.758Z,99271.32
2017-12-27T02:09:51.503Z,99263.84
2017-12-27T02:12:17.248Z,99265.07
2017-12-27T02:14:42.973Z,99261.63
2017-12-27T02:17:08.722Z,99265.03
2017-12-27T02:19:34.451Z,99259.61
2017-12-27T02:22:00.189Z,99243.00
2017-12-27T02:24:25.938Z,99237.27
2017-12-27T02:26:51.667Z,99228.14
2017-12-27T02:29:17.426Z,99225.45
2017-12-27T02:31:43.172Z,99216.20
2017-12-27T02:34:08.929Z,99221.39
2017-12-27T02:36:34.670Z,99211.37
2017-12-27T02:39:00.411Z,99201.30
2017-12-27T02:41:26.376Z,99198.68
2017-12-27T02:43:52.134Z,99185.29
2017-12-27T02:46:17.862Z,99185.69
2017-12-27T02:48:43.606Z,99184.81
2017-12-27T02:51:09.332Z,99180.28
2017-12-27T02:53:35.050Z,99177.83
2017-12-27T02:56:00.795Z,99169.67
2017-12-27T02:58:26.524Z,99166.59
2017-12-27T03:00:52.276Z,99167.33
2017-12-27T03:03:18.026Z,99160.87
2017-12-27T03:05:43.758Z,99153.55
2017-12-27T03:08:09.491Z,99147.05
2017-12-27T03:10:35.239Z,99143.68
2017-12-27T03:13:00.958Z,99146.42
2017-12-27T03:15:26.717Z,99135.64
2017-12-27T03:17:52.458Z,99133.31
2017-12-27T03:20:18.199Z,99130.90
2017-12-27T03:22:43.983Z,99129.20
2017-12-27T03:25:09.747Z,99127.17
2017-12-27T03:27:35.483Z,99126.42
2017-12-27T03:30:01.212Z,99116.09
2017-12-27T03:32:26.970Z,99108.25
2017-12-27T03:34:52.715Z,99100.56
2017-12-27T03:37:18.444Z,99093.52
2017-12-27T03:39:44.192Z,99091.45
2017-12-27T03:42:09.917Z,99085.44
2017-12-27T03:44:35.656Z,99088.48
2017-12-27T03:47:01.394Z,99081.04
2017-12-27T03:49:27.126Z,99077.44
2017-12-27T03:51:52.866Z,99079.22
2017-12-27T03:54:18.598Z,99080.13
2017-12-27T03:56:44.332Z,99070.07
2017-12-27T03:59:10.062Z,99075.73
2017-12-27T04:01:35.790Z,99063.53
2017-12-27T04:04:01.511Z,99063.19
2017-12-27T04:06:27.245Z,99056.77
2017-12-27T04:08:52.975Z,99053.20
2017-12-27T04:11:18.731Z,99052.69
2017-12-27T04:13:44.478Z,99041.36
2017-12-27T04:16:10.206Z,99034.88
2017-12-27T04:18:35.938Z,99034.78
2017-12-27T04:21:01.670Z,99025.33
2017-12-27T04:23:27.403Z,99028.45
2017-12-27T04:25:53.126Z,99022.67
2017-12-27T04:28:18.870Z,99019.58
2017-12-27T04:30:44.590Z,99014.95
2017-12-27T04:33:10.334Z,99004.86
2017-12-27T04:35:36.053Z,98999.67
2017-12-27T04:38:01.790Z,99005.06
2017-12-27T04:40:27.530Z,99002.20
2017-12-27T04:42:53.270Z,99000.14
2017-12-27T04:45:19.017Z,99000.19
2017-12-27T04:47:44.783Z,98988.83
2017-12-27T04:50:10.532Z,98983.33
2017-12-27T04:52:36.291Z,98979.80
2017-12-27T04:55:02.018Z,98967.84
2017-12-27T04:57:27.768Z,98963.47
2017-12-27T04:59:53.516Z,98959.29
2017-12-27T05:02:19.275Z,98955.33
2017-12-27T05:04:45.018Z,98943.57
2017-12-27T05:07:10.742Z,98933.13
2017-12-27T05:09:36.483Z,98925.45
2017-12-27T05:12:02.226Z,98925.10
2017-12-27T05:14:28.058Z,98929.02
2017-12-27T05:16:53.807Z,98928.14
2017-12-27T05:19:19.566Z,98935.42
2017-12-27T05:21:45.298Z,98949.13
2017-12-27T05:24:11.046Z,98959.85
2017-12-27T05:26:36.828Z,98969.48
2017-12-27T05:29:02.568Z,98972.56
2017-12-27T05:31:28.306Z,98975.26
2017-12-27T05:33:54.097Z,98967.26
2017-12-27T05:36:19.818Z,98970.34
2017-12-27T05:38:45.570Z,98957.07
2017-12-27T05:41:11.310Z,98962.78
2017-12-27T05:43:37.068Z,98951.37
2017-12-27T05:46:02.831Z,98949.31
2017-12-27T05:48:28.582Z,98937.12
2017-12-27T05:50:54.331Z,98937.88
2017-12-27T05:53:20.070Z,98933.91
2017-12-27T05:55:45.814Z,98928.36
2017-12-27T05:58:11.543Z,98925.67
2017-12-27T06:00:37.302Z,98918.53
2017-12-27T06:03:03.032Z,98918.01
2017-12-27T06:05:28.774Z,98907.95
2017-12-27T06:07:54.535Z,98901.31
2017-12-27T06:10:20.266Z,98896.17
2017-12-27T06:12:45.990Z,98891.09
2017-12-27T06:15:11.730Z,98886.47
2017-12-27T06:17:37.454Z,98890.43
2017-12-27T06:20:03.202Z,98887.39
2017-12-27T06:22:28.929Z,98896.02
2017-12-27T06:24:54.664Z,98894.36
2017-12-27T06:27:20.408Z,98892.23
2017-12-27T06:29:46.138Z,98891.36
2017-12-27T06:32:11.882Z,98882.33
2017-12-27T06:34:37.614Z,98887.64
2017-12-27T06:37:03.359Z,98886.34
2017-12-27T06:39:29.081Z,98877.62
2017-12-27T06:41:54.826Z,98875.06
2017-12-27T06:44:20.562Z,98857.64
2017-12-27T06:46:46.306Z,98855.50
2017-12-27T06:49:12.043Z,98838.52
2017-12-27T06:51:37.791Z,98841.09
2017-12-27T06:54:03.527Z,98838.53
2017-12-27T06:56:29.279Z,98837.59
2017-12-27T06:58:55.026Z,98832.42
2017-12-27T07:01:20.782Z,98824.63
2017-12-27T07:03:46.530Z,98826.38
2017-12-27T07:06:12.266Z,98822.40
2017-12-27T07:08:38.026Z,98820.14
2017-12-27T07:11:03.751Z,98825.80
2017-12-27T07:13:29.486Z,98824.23
2017-12-27T07:15:55.235Z,98817.52
2017-12-27T07:18:20.990Z,98819.66
2017-12-27T07:20:46.731Z,98821.09
2017-12-27T07:23:12.498Z,98824.54
2017-12-27T07:25:38.240Z,98821.05
2017-12-27T07:28:04.030Z,98815.25
2017-12-27T07:30:29.771Z,98814.47
2017-12-27T07:32:55.510Z,98809.59
2017-12-27T07:35:21.239Z,98808.58
2017-12-27T07:37:46.991Z,98802.00
2017-12-27T07:40:12.733Z,98798.02
2017-12-27T07:42:38.491Z,98796.37
2017-12-27T07:45:04.255Z,98790.63
2017-12-27T07:47:30.033Z,98784.97
2017-12-27T07:49:55.791Z,98771.55
2017-12-27T07:52:21.545Z,98773.25
2017-12-27T07:54:47.299Z,98770.25
2017-12-27T07:57:13.066Z,98768.75
2017-12-27T07:59:38.814Z,98754.37
2017-12-27T08:02:04.570Z,98756.06
2017-12-27T08:04:30.326Z,98753.89
2017-12-27T08:06:56.062Z,98757.27
2017-12-27T08:09:21.818Z,98749.48
2017-12-27T08:11:47.549Z,98745.84
2017-12-27T08:14:13.301Z,98738.44
2017-12-27T08:16:39.051Z,98732.72
2017-12-27T08:19:04.818Z,98733.08
2017-12-27T08:21:30.566Z,98724.26
2017-12-27T08:23:56.310Z,98721.69
2017-12-27T08:26:22.055Z,98718.59
2017-12-27T08:28:47.787Z,98714.66
2017-12-27T08:31:13.530Z,98705.03
2017-12-27T08:33:39.258Z,98698.87
2017-12-27T08:36:05.002Z,98690.17
2017-12-27T08:38:30.740Z,98689.23
2017-12-27T08:40:56.494Z,98692.28
2017-12-27T08:43:22.238Z,98692.28
2017-12-27T08:45:47.999Z,98693.06
2017-12-27T08:48:13.743Z,98680.85
2017-12-27T08:50:39.485Z,98678.09
2017-12-27T08:53:05.235Z,98670.19
2017-12-27T08:55:31.009Z,98672.41
2017-12-27T08:57:56.759Z,98659.23
2017-12-27T09:00:22.494Z,98666.87
2017-12-27T09:02:48.238Z,98657.70
2017-12-27T09:05:13.978Z,98653.80
2017-12-27T09:07:39.732Z,98654.19
2017-12-27T09:10:05.474Z,98646.72
2017-12-27T09:12:31.211Z,98646.60
2017-12-27T09:14:56.962Z,98655.22
2017-12-27T09:17:22.737Z,98649.76
2017-12-27T09:19:48.486Z,98643.11
2017-12-27T09:22:14.246Z,98643.55
2017-12-27T09:24:39.982Z,98642.04
2017-12-27T09:27:05.738Z,98635.97
2017-12-27T09:29:31.473Z,98641.43
2017-12-27T09:31:57.200Z,98631.72
2017-12-27T09:34:22.939Z,98628.94
2017-12-27T09:36:48.687Z,98613.66
2017-12-27T09:39:14.432Z,98623.00
2017-12-27T09:41:40.162Z,98626.92
2017-12-27T09:44:05.963Z,98634.77
2017-12-27T09:46:31.689Z,98636.07
2017-12-27T09:48:57.435Z,98616.44
2017-12-27T09:51:23.183Z,98633.23
2017-12-27T09:53:48.916Z,98612.67
2017-12-27T09:56:14.647Z,98622.26
2017-12-27T09:58:40.404Z,98619.47
2017-12-27T10:01:06.131Z,98619.91
2017-12-27T10:03:31.867Z,98612.87
2017-12-27T10:05:57.627Z,98615.80
2017-12-27T10:08:23.366Z,98610.84
2017-12-27T10:10:49.123Z,98604.17
2017-12-27T10:13:14.858Z,98614.42
2017-12-27T10:15:40.606Z,98603.39
2017-12-27T10:18:06.342Z,98608.84
2017-12-27T10:20:32.199Z,98604.48
2017-12-27T10:22:57.955Z,98592.56
2017-12-27T10:25:23.788Z,98602.12
2017-12-27T10:27:49.542Z,98601.55
2017-12-27T10:30:15.307Z,98594.06
2017-12-27T10:32:41.076Z,98595.58
2017-12-27T10:35:06.855Z,98587.22
2017-12-27T10:37:32.606Z,98585.16
2017-12-27T10:39:58.386Z,98585.66
2017-12-27T10:42:24.125Z,98572.42
2017-12-27T10:44:49.891Z,98571.19
2017-12-27T10:47:15.672Z,98564.75
2017-12-27T10:49:41.437Z,98563.13
2017-12-27T10:52:07.186Z,98556.83
2017-12-27T10:54:32.922Z,98560.39
2017-12-27T10:56:58.675Z,98543.11
2017-12-27T10:59:24.415Z,98544.66
2017-12-27T11:01:50.168Z,98542.06
2017-12-27T11:04:15.906Z,98540.24
2017-12-27T11:06:41.667Z,98538.80
2017-12-27T11:09:07.411Z,98539.88
2017-12-27T11:11:33.164Z,98530.02
2017-12-27T11:13:58.910Z,98513.61
2017-12-27T11:16:24.643Z,98512.23
2017-12-27T11:18:50.382Z,98505.88
2017-12-27T11:21:16.122Z,98505.11
2017-12-27T11:23:41.874Z,98491.76
2017-12-27T11:26:07.615Z,98489.63
2017-12-27T11:28:33.358Z,98482.52
2017-12-27T11:30:59.098Z,98486.81
2017-12-27T11:33:24.856Z,98486.13
2017-12-27T11:35:50.655Z,98482.23
2017-12-27T11:38:16.442Z,98478.76
2017-12-27T11:40:42.183Z,98475.08
2017-12-27T11:43:07.951Z,98467.00
2017-12-27T11:45:33.702Z,98464.17
2017-12-27T11:47:59.430Z,98463.08
2017-12-27T11:50:25.186Z,98462.11
2017-12-27T11:52:50.956Z,98458.66
2017-12-27T11:55:16.722Z,98453.84
2017-12-27T11:57:42.484Z,98463.58
2017-12-27T12:00:08.230Z,98461.58
2017-12-27T12:02:34.004Z,98460.18
2017-12-27T12:04:59.770Z,98459.23
2017-12-27T12:07:25.518Z,98456.19
2017-12-27T12:09:51.287Z,98454.19
2017-12-27T12:12:17.047Z,98442.78
2017-12-27T12:14:42.820Z,98439.48
2017-12-27T12:17:08.554Z,98434.25
2017-12-27T12:19:34.298Z,98438.88
2017-12-27T12:22:00.042Z,98436.52
2017-12-27T12:24:25.798Z,98435.56
2017-12-27T12:26:51.582Z,98429.59
2017-12-27T12:29:17.385Z,98425.66
2017-12-27T12:31:43.111Z,98418.16
2017-12-27T12:34:08.851Z,98418.68
2017-12-27T12:36:34.594Z,98418.66
2017-12-27T12:39:00.342Z,98415.06
2017-12-27T12:41:26.090Z,98406.38
2017-12-27T12:43:51.829Z,98411.75
2017-12-27T12:46:17.594Z,98405.02
2017-12-27T12:48:43.326Z,98411.61
2017-12-27T12:51:09.062Z,98411.62
2017-12-27T12:53:34.822Z,98401.27
2017-12-27T12:56:00.554Z,98397.22
2017-12-27T12:58:26.326Z,98390.73
2017-12-27T13:00:52.061Z,98400.39
2017-12-27T13:03:17.802Z,98397.34
2017-12-27T13:05:43.555Z,98392.86
2017-12-27T13:08:09.318Z,98393.92
2017-12-27T13:10:35.075Z,98396.24
2017-12-27T13:13:00.842Z,98396.76
2017-12-27T13:15:26.580Z,98393.04
2017-12-27T13:17:52.336Z,98379.55
2017-12-27T13:20:18.090Z,98383.13
2017-12-27T13:22:43.875Z,98379.21
2017-12-27T13:25:09.655Z,98373.16
2017-12-27T13:27:36.022Z,98377.00
2017-12-27T13:30:01.779Z,98370.90
2017-12-27T13:32:27.544Z,98371.64
2017-12-27T13:34:53.303Z,98358.92
2017-12-27T13:37:19.043Z,98363.70
2017-12-27T13:39:44.800Z,98356.22
2017-12-27T13:42:10.553Z,98356.23
2017-12-27T13:44:36.314Z,98345.73
2017-12-27T13:47:02.066Z,98336.56
2017-12-27T13:49:27.831Z,98333.22
2017-12-27T13:51:53.562Z,98333.15
2017-12-27T13:54:19.338Z,98333.56
2017-12-27T13:56:45.070Z,98332.78
2017-12-27T13:59:10.819Z,98328.91
2017-12-27T14:01:36.547Z,98328.56
2017-12-27T14:04:02.302Z,98331.61
2017-12-27T14:06:28.051Z,98332.30
2017-12-27T14:08:53.791Z,98335.31
2017-12-27T14:11:19.605Z,98336.37
2017-12-27T14:13:45.347Z,98339.36
2017-12-27T14:16:11.095Z,98331.44
2017-12-27T14:18:36.822Z,98338.42
2017-12-27T14:21:02.579Z,98330.13
2017-12-27T14:23:28.332Z,98322.02
2017-12-27T14:25:54.076Z,98320.42
2017-12-27T14:28:19.812Z,98319.13
2017-12-27T14:30:45.575Z,98325.59
2017-12-27T14:33:11.322Z,98322.67
2017-12-27T14:35:37.071Z,98318.97
2017-12-27T14:38:02.820Z,98319.03
2017-12-27T14:40:28.571Z,98326.76
2017-12-27T14:42:54.314Z,98336.42
2017-12-27T14:45:20.076Z,98331.17
2017-12-27T14:47:45.852Z,98320.33
2017-12-27T14:50:11.656Z,98322.20
2017-12-27T14:52:37.407Z,98326.56
2017-12-27T14:55:03.189Z,98322.72
2017-12-27T14:57:28.939Z,98318.36
2017-12-27T14:59:54.682Z,98320.66
2017-12-27T15:02:20.446Z,98319.44
2017-12-27T15:04:46.198Z,98310.32
2017-12-27T15:07:11.959Z,98313.89
2017-12-27T15:09:37.702Z,98309.95
2017-12-27T15:12:03.469Z,98306.39
2017-12-27T15:14:29.213Z,98302.03
2017-12-27T15:16:54.964Z,98301.09
2017-12-27T15:19:20.740Z,98305.03
2017-12-27T15:21:46.507Z,98302.53
2017-12-27T15:24:12.279Z,98300.95
2017-12-27T15:26:38.010Z,98294.56
2017-12-27T15:29:03.762Z,98286.56
2017-12-27T15:31:29.490Z,98284.34
2017-12-27T15:33:55.250Z,98275.41
2017-12-27T15:36:21.006Z,98282.59
2017-12-27T15:38:46.754Z,98282.22
2017-12-27T15:41:12.487Z,98282.30
2017-12-27T15:43:38.263Z,98284.47
2017-12-27T15:46:04.027Z,98281.38
2017-12-27T15:48:29.787Z,98285.66
2017-12-27T15:50:55.534Z,98288.77
2017-12-27T15:53:21.267Z,98285.66
2017-12-27T15:55:47.006Z,98293.45
2017-12-27T15:58:12.746Z,98297.45
2017-12-27T16:00:38.510Z,98298.82
2017-12-27T16:03:04.241Z,98296.77
2017-12-27T16:05:29.986Z,98295.98
2017-12-27T16:07:56.710Z,98300.00
2017-12-27T16:10:22.518Z,98295.48
2017-12-27T16:12:48.243Z,98297.72
2017-12-27T16:15:13.999Z,98293.31
2017-12-27T16:17:39.763Z,98294.30
2017-12-27T16:20:05.519Z,98289.89
2017-12-27T16:22:31.274Z,98292.92
2017-12-27T16:24:57.010Z,98285.59
2017-12-27T16:27:22.764Z,98285.46
2017-12-27T16:29:48.499Z,98286.02
2017-12-27T16:32:14.244Z,98282.58
2017-12-27T16:34:39.986Z,98279.11
2017-12-27T16:37:05.765Z,98286.54
2017-12-27T16:39:31.487Z,98276.43
2017-12-27T16:41:57.230Z,98277.94
2017-12-27T16:44:23.002Z,98284.04
2017-12-27T16:46:48.768Z,98286.45
2017-12-27T16:49:14.528Z,98285.53
2017-12-27T16:51:40.306Z,98288.69
2017-12-27T16:54:06.063Z,98290.09
2017-12-27T16:56:31.795Z,98293.58
2017-12-27T16:58:57.532Z,98282.66
2017-12-27T17:01:23.278Z,98283.91
2017-12-27T17:03:49.022Z,98284.34
2017-12-27T17:06:14.760Z,98292.63
2017-12-27T17:08:40.522Z,98286.45
2017-12-27T17:11:06.286Z,98291.98
2017-12-27T17:13:32.048Z,98292.42
2017-12-27T17:15:57.790Z,98295.33
2017-12-27T17:18:23.793Z,98296.58
2017-12-27T17:20:49.665Z,98305.62
2017-12-27T17:23:15.442Z,98307.80
2017-12-27T17:25:41.184Z,98310.22
2017-12-27T17:28:06.923Z,98311.23
2017-12-27T17:30:32.693Z,98311.30
2017-12-27T17:32:58.454Z,98306.98
2017-12-27T17:35:24.190Z,98307.00
2017-12-27T17:37:49.954Z,98318.56
2017-12-27T17:40:15.691Z,98319.64
2017-12-27T17:42:41.427Z,98318.88
2017-12-27T17:45:07.187Z,98311.11
2017-12-27T17:47:32.963Z,98314.23
2017-12-27T17:49:58.782Z,98318.83
2017-12-27T17:52:24.520Z,98322.02
2017-12-27T17:54:51.075Z,98322.27
2017-12-27T17:57:16.831Z,98327.59
2017-12-27T17:59:42.602Z,98319.85
2017-12-27T18:02:08.359Z,98329.66
2017-12-27T18:04:34.118Z,98328.48
2017-12-27T18:06:59.863Z,98329.48
2017-12-27T18:09:25.602Z,98334.72
2017-12-27T18:11:51.359Z,98334.77
2017-12-27T18:14:17.109Z,98333.55
2017-12-27T18:16:42.846Z,98329.73
2017-12-27T18:19:08.595Z,98335.95
2017-12-27T18:21:34.350Z,98331.05
2017-12-27T18:24:00.101Z,98328.05
2017-12-27T18:26:25.856Z,98328.92
2017-12-27T18:28:51.606Z,98329.37
2017-12-27T18:31:17.357Z,98336.04
2017-12-27T18:33:43.110Z,98342.27
2017-12-27T18:36:08.862Z,98342.13
2017-12-27T18:38:34.601Z,98349.19
2017-12-27T18:41:00.342Z,98345.63
2017-12-27T18:43:26.078Z,98341.70
2017-12-27T18:45:52.646Z,98341.02
2017-12-27T18:48:18.379Z,98333.74
2017-12-27T18:50:44.123Z,98343.77
2017-12-27T18:53:09.870Z,98333.61
2017-12-27T18:55:35.625Z,98332.37
2017-12-27T18:58:01.383Z,98333.74
2017-12-27T19:00:27.154Z,98332.17
2017-12-27T19:02:52.918Z,98335.78
2017-12-27T19:05:18.682Z,98340.89
2017-12-27T19:07:44.440Z,98344.08
2017-12-27T19:10:10.205Z,98339.34
2017-12-27T19:12:35.955Z,98334.36
2017-12-27T19:15:01.682Z,98338.20
2017-12-27T19:17:27.466Z,98336.61
2017-12-27T19:19:53.202Z,98341.27
2017-12-27T19:22:18.943Z,98339.52
2017-12-27T19:24:44.685Z,98338.97
2017-12-27T19:27:10.423Z,98333.78
2017-12-27T19:29:36.162Z,98340.41
2017-12-27T19:32:01.902Z,98342.02
2017-12-27T19:34:27.655Z,98344.69
2017-12-27T19:36:53.423Z,98345.45
2017-12-27T19:39:19.178Z,98341.53
2017-12-27T19:41:44.911Z,98333.53
2017-12-27T19:44:12.099Z,98341.83
2017-12-27T19:46:38.999Z,98345.00
2017-12-27T19:49:06.143Z,98344.58
2017-12-27T19:51:33.790Z,98340.88
2017-12-27T19:54:00.091Z,98341.57
2017-12-27T19:56:27.140Z,98346.79
2017-12-27T19:58:54.597Z,98345.44
2017-12-27T20:01:21.732Z,98347.28
2017-12-27T20:03:48.619Z,98351.16
2017-12-27T20:06:15.882Z,98347.80
2017-12-27T20:08:43.425Z,98356.02
2017-12-27T20:11:10.663Z,98354.53
2017-12-27T20:13:36.403Z,98353.34
2017-12-27T20:16:03.764Z,98351.98
2017-12-27T20:18:29.947Z,98352.53
2017-12-27T20:20:57.194Z,98359.00
2017-12-27T20:23:24.322Z,98360.64
2017-12-27T20:25:51.776Z,98365.06
2017-12-27T20:28:19.243Z,98364.81
2017-12-27T20:30:46.193Z,98368.82
2017-12-27T20:33:13.370Z,98362.70
2017-12-27T20:35:40.398Z,98354.17
2017-12-27T20:38:07.356Z,98364.76
2017-12-27T20:40:34.489Z,98361.09
2017-12-27T20:43:01.467Z,98366.34
2017-12-27T20:45:28.779Z,98372.94
2017-12-27T20:47:56.645Z,98373.48
2017-12-27T20:50:23.919Z,98369.19
2017-12-27T20:52:50.481Z,98379.16
2017-12-27T20:55:17.656Z,98367.70
2017-12-27T20:57:44.819Z,98366.44
2017-12-27T21:00:11.501Z,98365.95
2017-12-27T21:02:37.317Z,98369.13
2017-12-27T21:05:04.658Z,98371.75
2017-12-27T21:07:31.863Z,98378.91
2017-12-27T21:09:58.991Z,98378.66
2017-12-27T21:12:24.774Z,98376.80
2017-12-27T21:14:50.510Z,98371.93
2017-12-27T21:17:16.441Z,98367.23
2017-12-27T21:19:42.173Z,98362.58
2017-12-27T21:22:07.920Z,98376.86
2017-12-27T21:24:33.663Z,98375.61
2017-12-27T21:26:59.662Z,98377.41
2017-12-27T21:29:25.406Z,98377.73
2017-12-27T21:31:51.611Z,98381.45
2017-12-27T21:34:17.358Z,98380.04
2017-12-27T21:36:43.093Z,98384.39
2017-12-27T21:39:08.862Z,98386.52
2017-12-27T21:41:34.613Z,98387.81
2017-12-27T21:44:00.374Z,98384.64
2017-12-27T21:46:26.131Z,98390.86
2017-12-27T21:51:51.683Z,98393.86
2017-12-27T21:54:17.422Z,98394.48
2017-12-27T21:56:43.151Z,98397.61
2017-12-27T21:59:14.826Z,98394.43
2017-12-27T22:01:42.465Z,98399.84
2017-12-27T22:04:08.198Z,98395.85
2017-12-27T22:06:33.939Z,98407.64
2017-12-27T22:08:59.678Z,98404.47
2017-12-27T22:11:25.409Z,98402.45
2017-12-27T22:13:51.164Z,98407.22
2017-12-27T22:16:16.940Z,98410.57
2017-12-27T22:18:42.674Z,98407.58
2017-12-27T22:21:08.402Z,98410.63
2017-12-27T22:23:34.156Z,98406.15
2017-12-27T22:25:59.882Z,98410.45
2017-12-27T22:28:25.636Z,98410.14
2017-12-27T22:30:51.394Z,98405.38
2017-12-27T22:33:17.150Z,98411.88
2017-12-27T22:35:42.914Z,98415.79
2017-12-27T22:38:08.643Z,98411.69
2017-12-27T22:40:34.398Z,98412.70
2017-12-27T22:43:00.150Z,98416.54
2017-12-27T22:45:25.930Z,98416.73
2017-12-27T22:47:52.507Z,98420.66
2017-12-27T22:50:18.262Z,98427.50
2017-12-27T22:52:44.012Z,98423.52
2017-12-27T22:55:09.750Z,98418.66
2017-12-27T22:57:35.498Z,98418.92
2017-12-27T23:00:01.249Z,98423.28
2017-12-27T23:02:27.083Z,98421.95
2017-12-27T23:04:52.840Z,98417.62
2017-12-27T23:07:18.578Z,98421.53
2017-12-27T23:09:44.319Z,98420.65
2017-12-27T23:12:10.073Z,98417.62
2017-12-27T23:14:35.810Z,98419.73
2017-12-27T23:17:01.542Z,98413.20
2017-12-27T23:19:27.274Z,98413.67
2017-12-27T23:21:53.011Z,98412.36
2017-12-27T23:24:18.749Z,98411.61
2017-12-27T23:26:44.495Z,98414.17
2017-12-27T23:29:10.223Z,98398.16
2017-12-27T23:31:35.981Z,98401.20
2017-12-27T23:34:01.722Z,98407.20
2017-12-27T23:36:27.474Z,98405.08
2017-12-27T23:38:53.204Z,98402.90
2017-12-27T23:41:18.942Z,98409.33
2017-12-27T23:43:44.700Z,98404.14
2017-12-27T23:46:10.491Z,98403.02
2017-12-27T23:48:36.239Z,98406.14
2017-12-27T23:51:01.983Z,98401.97
2017-12-27T23:53:27.734Z,98407.03
2017-12-27T23:55:53.476Z,98413.23
2017-12-27T23:58:19.246Z,98410.70
